Main page
METAR-TAF:

METAR-TAF

Airports :

Salamanca, Spain

Salamanca Airport

latitude: 40-57N, longitude: 005-30W, elevation: 793 m

Current weather observation

The report was made 15 minutes ago, at 07:00 UTC
Calm wind
Temperature -3°C
Humidity 93%
Pressure 1025 hPa
Visibility 10 km or more
no clouds below 1500 m and no cumulonimbus

METAR: LESA 180700Z 00000KT CAVOK M03/M04 Q1025

Time: 08:15 (07:15 UTC)

Forecast

The report was made 2 hours and 15 minutes ago, at 05:00 UTC
Forecast valid from 18 at 06 UTC to 19 at 06 UTC
Wind 8 kt from the East/Northeast
Visibility 10 km or more
no clouds below 1500 m and no cumulonimbus
Becoming
from 18 at 15 UTC to 18 at 17 UTC
Scattered clouds at a height of 3000 ft

TAF: LESA 180500Z 1806/1906 07008KT CAVOK TX11/1815Z TN03/1807Z BECMG 1815/1817 SCT030

Weather observations and forecasts of more than 4000 airports (METAR and TAF reports).

The available stations are represented by yellow and red dots on the map.

Hover mouse over dot to see the name of the station.

Then click to see weather observations and forecasts.

To change the map : click on the green buttons with a black cross to zoom in, on the green button with a dash to zoom out, or on the green arrows for adjacent maps.


METAR-TAF: